Samut Sakhon, Thailand
Current Conditions -  °F | °C
As of 9:00 AM on Saturday 20 Dec 2014 (Local Time) from VTBS Reporting Station
Clear Clear  
Wind Chill: 77°   Ceiling: Unl
Heat Index: 79°   Visibility: 6mi
Dew Point: 59°   Wind: 6mph
Humidity: 54%   Direction: 50°NE
Pressure: 30"   Gusts: NA
Location:  13.54°N, 100.28°E
Report Text: VTBS 200200Z 05005KT 350V080 CAVOK 25/15 Q1016 NOSIG
Loading
Personal Weather Stations






























Interactive Weather Map New forecast layout! Learn more

10-Day Weather Forecast

Advertisements
Track Severe Weather on mobile